Grand Forks AFB, North Dakota
Current Conditions -  °F | °C
As of 12:58 PM on Friday 24 Oct 2014 (Local Time) from KRDR Reporting Station
Scattered Clouds Scattered Clouds  
Wind Chill: 70°   Ceiling: Unl
Heat Index: 70°   Visibility: 10mi
Dew Point: 41°   Wind: 16mph
Humidity: 35%   Direction: 270°W
Pressure: 29.76"   Gusts: 25mph
Location:  47.96°N, 97.38°W
Report Text: KRDR 241758Z AUTO 27014G22KT 10SM SCT120 21/05 A2976 RMK AO2 SLP083 55002
Loading
Personal Weather Stations






























Interactive Weather Map
Tropical Storm Tracking
New forecast layout! Learn more

10-Day Weather Forecast

Advertisements
Track Severe Weather on mobile